createdAt,value
2022-09-06T00:02:47.200Z,14.31
2022-09-06T00:07:47.129Z,14.5
2022-09-06T00:12:47.138Z,14.43
2022-09-06T00:17:47.128Z,14.25
2022-09-06T00:22:47.108Z,14.31
2022-09-06T00:27:47.125Z,14.12
2022-09-06T00:32:47.118Z,14.12
2022-09-06T00:37:47.111Z,14.25
2022-09-06T00:42:47.096Z,14
2022-09-06T00:47:47.093Z,14.12
2022-09-06T00:52:47.093Z,14.18
2022-09-06T00:57:47.066Z,14.06
2022-09-06T01:02:47.208Z,13.93
2022-09-06T01:07:47.069Z,13.87
2022-09-06T01:12:47.064Z,13.93
2022-09-06T01:17:47.059Z,14
2022-09-06T01:22:47.050Z,13.87
2022-09-06T01:27:47.040Z,13.87
2022-09-06T01:32:47.060Z,14.31
2022-09-06T01:37:47.044Z,14.12
2022-09-06T01:42:47.040Z,13.93
2022-09-06T01:52:47.016Z,13.93
2022-09-06T02:02:47.023Z,13.93
2022-09-06T02:07:47.016Z,13.93
2022-09-06T02:17:46.987Z,13.75
2022-09-06T02:22:46.977Z,13.68
2022-09-06T02:27:46.978Z,13.68
2022-09-06T02:32:46.972Z,13.68
2022-09-06T02:37:46.960Z,13.62
2022-09-06T02:52:46.958Z,13.5
2022-09-06T02:57:46.928Z,13.43
2022-09-06T03:12:46.941Z,13.43
2022-09-06T03:17:46.926Z,13.43
2022-09-06T03:22:46.914Z,13.5
2022-09-06T03:27:46.916Z,13.5
2022-09-06T03:32:46.909Z,13.5
2022-09-06T03:37:46.888Z,13.5
2022-09-06T03:42:46.873Z,13.5
2022-09-06T03:47:46.891Z,13.31
2022-09-06T03:52:46.884Z,13.18
2022-09-06T03:57:46.870Z,13.18
2022-09-06T04:02:46.914Z,13.12
2022-09-06T04:07:46.851Z,13.12
2022-09-06T04:12:46.852Z,12.87
2022-09-06T04:17:46.840Z,12.87
2022-09-06T04:22:46.833Z,13.06
2022-09-06T04:27:46.836Z,13
2022-09-06T04:42:46.829Z,13.25
2022-09-06T04:57:50.728Z,13.62
2022-09-06T05:02:46.828Z,15.25
2022-09-06T05:27:46.773Z,18.5
2022-09-06T05:37:46.760Z,19.06
2022-09-06T05:42:46.764Z,19.75
2022-09-06T05:47:46.735Z,19.62
2022-09-06T05:52:46.750Z,20.37
2022-09-06T05:57:46.749Z,20.5
2022-09-06T06:02:46.834Z,20.81
2022-09-06T06:07:46.716Z,21.25
2022-09-06T06:12:46.711Z,22.12
2022-09-06T06:17:46.693Z,22.31
2022-09-06T06:22:46.699Z,21.5
2022-09-06T06:27:46.694Z,21.68
2022-09-06T06:32:46.702Z,22.18
2022-09-06T06:37:46.684Z,23.62
2022-09-06T06:42:46.685Z,21.37
2022-09-06T06:47:46.674Z,22.06
2022-09-06T06:57:46.678Z,21.68
2022-09-06T07:02:46.656Z,21.18
2022-09-06T07:07:46.648Z,20.06
2022-09-06T07:12:46.655Z,19.75
2022-09-06T07:17:46.641Z,18.93
2022-09-06T07:22:46.618Z,19.06
2022-09-06T07:27:46.884Z,18.93
2022-09-06T07:32:46.620Z,19.37
2022-09-06T07:37:46.602Z,19.06
2022-09-06T07:42:46.608Z,19.5
2022-09-06T07:48:01.885Z,20.43
2022-09-06T07:57:46.610Z,21.5
2022-09-06T08:02:46.567Z,22.62
2022-09-06T08:07:46.602Z,22.12
2022-09-06T08:12:46.564Z,22.37
2022-09-06T08:17:46.553Z,22.5
2022-09-06T08:22:46.559Z,22.18
2022-09-06T08:27:46.545Z,22.43
2022-09-06T08:32:46.549Z,22.43
2022-09-06T08:37:46.525Z,22
2022-09-06T08:42:46.529Z,22.18
2022-09-06T08:47:46.539Z,21.93
2022-09-06T08:53:00.051Z,22.68
2022-09-06T08:57:46.501Z,22.87
2022-09-06T09:02:46.510Z,22.31
2022-09-06T09:07:46.490Z,22.5
2022-09-06T09:12:46.494Z,22.06
2022-09-06T09:17:46.497Z,22.75
2022-09-06T09:22:46.464Z,22.31
2022-09-06T09:27:46.465Z,22
2022-09-06T09:32:46.460Z,22.06
2022-09-06T09:37:46.793Z,21.93
2022-09-06T09:42:46.441Z,21.87
2022-09-06T09:47:46.430Z,21.56
2022-09-06T09:52:46.436Z,22.37
2022-09-06T09:57:46.415Z,22.18
2022-09-06T10:02:46.422Z,22
2022-09-06T10:07:46.399Z,21.75
2022-09-06T10:12:46.412Z,21.87
2022-09-06T10:17:46.397Z,22.18
2022-09-06T10:22:46.393Z,22.25
2022-09-06T10:28:01.567Z,22.68
2022-09-06T10:32:46.366Z,22.81
2022-09-06T10:37:46.373Z,22.5
2022-09-06T10:42:46.346Z,23.18
2022-09-06T10:47:46.378Z,23.06
2022-09-06T10:52:46.346Z,23.18
2022-09-06T11:02:46.367Z,23.5
2022-09-06T11:12:46.324Z,23.62
2022-09-06T11:17:46.318Z,24.5
2022-09-06T11:22:46.320Z,24.06
2022-09-06T11:27:46.296Z,23.75
2022-09-06T11:32:46.289Z,24.18
2022-09-06T11:37:46.283Z,24.31
2022-09-06T11:42:46.283Z,24.31
2022-09-06T11:47:46.266Z,24.56
2022-09-06T11:52:46.269Z,24.5
2022-09-06T11:57:46.260Z,25
2022-09-06T12:02:46.543Z,24.87
2022-09-06T12:07:46.234Z,25.06
2022-09-06T12:12:46.236Z,24.87
2022-09-06T12:17:46.236Z,24.81
2022-09-06T12:22:46.235Z,24.62
2022-09-06T12:27:46.219Z,24.81
2022-09-06T12:32:46.227Z,25.5
2022-09-06T12:37:46.196Z,25.31
2022-09-06T12:42:46.204Z,25.5
2022-09-06T12:47:46.188Z,25.75
2022-09-06T12:52:46.196Z,26
2022-09-06T12:57:46.189Z,26.06
2022-09-06T13:02:46.317Z,25.56
2022-09-06T13:07:46.185Z,26.18
2022-09-06T13:12:46.167Z,26.31
2022-09-06T13:17:46.166Z,26.68
2022-09-06T13:22:46.164Z,27.18
2022-09-06T13:27:46.147Z,26.25
2022-09-06T13:32:46.140Z,26.68
2022-09-06T13:37:46.129Z,26.56
2022-09-06T13:42:46.125Z,26.06
2022-09-06T13:47:46.114Z,25.93
2022-09-06T13:52:46.121Z,26.5
2022-09-06T13:57:46.102Z,26.18
2022-09-06T14:02:46.190Z,26.43
2022-09-06T14:07:46.099Z,26.31
2022-09-06T14:12:46.084Z,25.93
2022-09-06T14:17:46.080Z,26.37
2022-09-06T14:22:46.067Z,25.5
2022-09-06T14:27:46.081Z,25.5
2022-09-06T14:32:46.053Z,25.56
2022-09-06T14:37:46.044Z,25.81
2022-09-06T14:42:49.917Z,25.62
2022-09-06T14:47:46.054Z,25.56
2022-09-06T14:52:46.045Z,25.81
2022-09-06T14:57:46.050Z,25.62
2022-09-06T15:02:46.063Z,25.81
2022-09-06T15:07:46.006Z,26.5
2022-09-06T15:12:46.027Z,26.56
2022-09-06T15:17:45.995Z,26.5
2022-09-06T15:22:45.992Z,26
2022-09-06T15:27:46.024Z,26
2022-09-06T15:32:45.990Z,25.81
2022-09-06T15:37:45.984Z,25.5
2022-09-06T15:42:45.966Z,25.5
2022-09-06T15:47:45.968Z,25.43
2022-09-06T15:52:45.953Z,25.18
2022-09-06T15:57:45.963Z,25.31
2022-09-06T16:02:45.976Z,25
2022-09-06T16:07:45.931Z,24.93
2022-09-06T16:12:49.966Z,25.06
2022-09-06T16:17:45.921Z,24.93
2022-09-06T16:22:45.915Z,24.5
2022-09-06T16:27:45.908Z,24.56
2022-09-06T16:32:45.911Z,24.43
2022-09-06T16:37:45.905Z,24.43
2022-09-06T16:42:45.891Z,24.18
2022-09-06T16:47:45.872Z,24.12
2022-09-06T17:07:45.863Z,23.56
2022-09-06T17:27:45.829Z,21.75
2022-09-06T17:47:45.826Z,20.5
2022-09-06T17:52:45.788Z,20.31
2022-09-06T17:57:45.788Z,20.18
2022-09-06T18:02:45.788Z,20.18
2022-09-06T18:07:45.773Z,20.18
2022-09-06T18:12:45.767Z,20.06
2022-09-06T18:17:45.780Z,20
2022-09-06T18:22:45.781Z,19.93
2022-09-06T18:27:45.763Z,19.87
2022-09-06T18:32:45.747Z,20.12
2022-09-06T18:47:45.721Z,20.5
2022-09-06T18:52:45.706Z,20.37
2022-09-06T18:57:45.781Z,20.25
2022-09-06T19:07:45.704Z,19.93
2022-09-06T19:17:45.678Z,19.56
2022-09-06T19:42:45.646Z,19
2022-09-06T19:57:45.623Z,18.31
2022-09-06T20:02:45.616Z,17.93
2022-09-06T20:07:45.636Z,18.25
2022-09-06T20:12:45.630Z,18.25
2022-09-06T20:17:45.608Z,18.06
2022-09-06T20:22:45.596Z,18.12
2022-09-06T20:27:45.595Z,18.12
2022-09-06T20:32:50.590Z,17.87
2022-09-06T20:37:45.575Z,17.62
2022-09-06T20:42:45.589Z,17.25
2022-09-06T20:47:45.568Z,17.12
2022-09-06T20:52:45.560Z,16.81
2022-09-06T20:57:45.569Z,16.62
2022-09-06T21:02:45.539Z,16.5
2022-09-06T21:07:45.552Z,17.06
2022-09-06T21:12:45.542Z,17.25
2022-09-06T21:17:45.520Z,17.25
2022-09-06T21:22:45.538Z,16.68
2022-09-06T21:27:45.514Z,16.5
2022-09-06T21:32:45.510Z,16.5
2022-09-06T21:37:45.509Z,16.56
2022-09-06T21:42:45.492Z,16.31
2022-09-06T21:47:45.497Z,16.06
2022-09-06T21:52:45.491Z,15.93
2022-09-06T21:57:45.471Z,16.06
2022-09-06T22:12:45.500Z,15.93
2022-09-06T22:17:45.479Z,15.62
2022-09-06T22:22:45.444Z,15.68
2022-09-06T22:27:45.449Z,15.81
2022-09-06T22:32:45.442Z,15.68
2022-09-06T22:37:45.439Z,15.62
2022-09-06T22:42:45.431Z,15.56
2022-09-06T22:47:45.405Z,15.56
2022-09-06T22:52:45.413Z,15.43
2022-09-06T22:57:45.387Z,15.31
2022-09-06T23:02:45.399Z,15.18
2022-09-06T23:07:45.398Z,15.5
2022-09-06T23:12:45.380Z,15.43
2022-09-06T23:17:45.386Z,15.31
2022-09-06T23:22:45.374Z,15.31
2022-09-06T23:27:45.358Z,15.18
2022-09-06T23:32:45.387Z,15.25
2022-09-06T23:37:45.347Z,15.25
2022-09-06T23:42:45.356Z,15.31
2022-09-06T23:47:45.359Z,15.06
2022-09-06T23:52:45.336Z,15
2022-09-06T23:57:45.348Z,14.93
